Time,TemperatureF,DewpointF,PressureIn,WindDirection,WindDirectionDegrees,WindSpeedMPH,WindSpeedGustMPH,Humidity,HourlyPrecipIn,Conditions,Clouds,dailyrainin,SoftwareType,DateUTC
2013-12-21 00:03:00,34.2,32.6,17.72,East,96,0.0,0.0,94,0.00,,,0.00,VWS V13.00,2013-12-21 09:03:00,
2013-12-21 00:08:00,34.3,32.8,17.72,East,96,0.0,0.0,94,0.00,,,0.00,VWS V13.00,2013-12-21 09:08:00,
2013-12-21 00:13:00,34.3,32.8,17.72,NNE,23,0.0,0.0,94,0.00,,,0.00,VWS V13.00,2013-12-21 09:13:00,
2013-12-21 00:18:00,34.5,33.0,17.72,NNE,23,0.0,0.0,94,0.00,,,0.00,VWS V13.00,2013-12-21 09:18:00,
2013-12-21 00:23:00,34.7,33.2,17.72,NNE,23,0.0,0.0,94,0.00,,,0.00,VWS V13.00,2013-12-21 09:23:00,
2013-12-21 00:28:00,34.9,33.3,17.72,NNE,23,0.0,0.0,94,0.00,,,0.00,VWS V13.00,2013-12-21 09:28:00,
2013-12-21 00:33:00,34.9,33.3,17.72,NNE,23,0.0,0.0,94,0.00,,,0.00,VWS V13.00,2013-12-21 09:33:00,
2013-12-21 00:38:00,35.4,34.1,17.72,NNE,18,0.0,0.0,95,0.00,,,0.00,VWS V13.00,2013-12-21 09:38:00,
2013-12-21 00:43:00,35.6,34.0,17.72,North,6,0.0,0.0,94,0.00,,,0.00,VWS V13.00,2013-12-21 09:43:00,
2013-12-21 00:48:00,36.1,34.8,17.72,North,357,3.6,5.8,95,0.00,,,0.00,VWS V13.00,2013-12-21 09:48:00,
2013-12-21 00:53:00,36.5,35.2,17.72,North,9,0.0,5.8,95,0.00,,,0.00,VWS V13.00,2013-12-21 09:53:00,
2013-12-21 00:58:00,36.7,35.4,17.72,NNE,23,0.0,5.8,95,0.00,,,0.00,VWS V13.00,2013-12-21 09:58:00,
2013-12-21 01:03:00,36.5,34.9,17.72,North,3,4.0,4.9,94,0.00,,,0.00,VWS V13.00,2013-12-21 10:03:00,
2013-12-21 01:08:00,36.5,34.9,17.72,NNE,21,0.0,4.9,94,0.00,,,0.00,VWS V13.00,2013-12-21 10:08:00,
2013-12-21 01:13:00,36.5,34.9,17.72,NNE,18,0.0,4.9,94,0.00,,,0.00,VWS V13.00,2013-12-21 10:13:00,
2013-12-21 01:18:00,36.7,35.1,17.72,NNE,18,0.0,4.9,94,0.00,,,0.00,VWS V13.00,2013-12-21 10:18:00,
2013-12-21 01:23:00,36.9,35.3,17.72,North,4,3.6,6.3,94,0.00,,,0.00,VWS V13.00,2013-12-21 10:23:00,
2013-12-21 01:28:00,37.0,35.7,17.72,North,10,0.0,6.3,95,0.00,,,0.00,VWS V13.00,2013-12-21 10:28:00,
2013-12-21 01:33:00,37.0,35.7,17.72,NNE,17,0.0,6.3,95,0.00,,,0.00,VWS V13.00,2013-12-21 10:33:00,
2013-12-21 01:38:00,37.4,35.8,17.72,NNE,23,0.0,6.3,94,0.00,,,0.00,VWS V13.00,2013-12-21 10:38:00,
2013-12-21 01:43:00,37.4,35.8,17.72,NNE,18,0.0,0.0,94,0.00,,,0.00,VWS V13.00,2013-12-21 10:43:00,
2013-12-21 01:48:00,37.2,35.7,17.72,NNE,20,0.0,0.0,94,0.00,,,0.00,VWS V13.00,2013-12-21 10:48:00,
2013-12-21 01:53:00,37.0,35.5,17.72,NE,39,0.0,0.0,94,0.00,,,0.00,VWS V13.00,2013-12-21 10:53:00,
2013-12-21 01:58:00,37.0,35.5,17.72,NE,39,0.0,0.0,94,0.00,,,0.00,VWS V13.00,2013-12-21 10:58:00,
2013-12-21 02:03:00,36.9,35.3,17.72,NE,39,0.0,0.0,94,0.00,,,0.00,VWS V13.00,2013-12-21 11:03:00,
2013-12-21 02:08:00,36.7,35.1,17.72,NE,39,0.0,0.0,94,0.00,,,0.00,VWS V13.00,2013-12-21 11:08:00,
2013-12-21 02:13:00,36.7,35.1,17.72,NNE,25,0.0,3.1,94,0.00,,,0.00,VWS V13.00,2013-12-21 11:13:00,
2013-12-21 02:18:00,36.7,35.1,17.72,NNE,19,0.0,3.1,94,0.00,,,0.00,VWS V13.00,2013-12-21 11:18:00,
2013-12-21 02:23:00,36.7,35.1,17.72,NNE,19,0.0,0.0,94,0.00,,,0.00,VWS V13.00,2013-12-21 11:23:00,
2013-12-21 02:28:00,36.3,34.8,17.72,NNE,19,0.0,0.0,94,0.00,,,0.00,VWS V13.00,2013-12-21 11:28:00,
2013-12-21 02:33:00,36.1,34.6,17.72,NNE,19,0.0,0.0,94,0.00,,,0.00,VWS V13.00,2013-12-21 11:33:00,
2013-12-21 02:38:00,36.1,34.6,17.72,NNE,19,0.0,0.0,94,0.00,,,0.00,VWS V13.00,2013-12-21 11:38:00,
2013-12-21 02:43:00,36.1,34.6,17.72,NNE,19,0.0,0.0,94,0.00,,,0.00,VWS V13.00,2013-12-21 11:43:00,
2013-12-21 02:48:00,36.1,34.6,17.72,NNE,19,0.0,0.0,94,0.00,,,0.00,VWS V13.00,2013-12-21 11:48:00,
2013-12-21 02:53:00,35.8,34.2,17.72,NNE,19,0.0,0.0,94,0.00,,,0.00,VWS V13.00,2013-12-21 11:53:00,
2013-12-21 02:58:00,35.8,34.2,17.72,NNE,19,0.0,0.0,94,0.00,,,0.00,VWS V13.00,2013-12-21 11:58:00,
2013-12-21 03:03:00,35.8,34.2,17.72,NNE,19,0.0,0.0,94,0.00,,,0.00,VWS V13.00,2013-12-21 12:03:00,
2013-12-21 03:08:00,35.8,34.2,17.72,NNE,19,0.0,0.0,94,0.00,,,0.00,VWS V13.00,2013-12-21 12:08:00,
2013-12-21 03:13:00,35.8,34.2,17.72,NNE,19,0.0,0.0,94,0.00,,,0.00,VWS V13.00,2013-12-21 12:13:00,
2013-12-21 03:18:00,35.8,34.2,17.72,NNE,19,0.0,0.0,94,0.00,,,0.00,VWS V13.00,2013-12-21 12:18:00,
2013-12-21 03:23:00,35.6,34.0,17.72,NNE,19,0.0,0.0,94,0.00,,,0.00,VWS V13.00,2013-12-21 12:23:00,
2013-12-21 03:28:00,35.6,34.0,17.72,NNE,19,0.0,0.0,94,0.00,,,0.00,VWS V13.00,2013-12-21 12:28:00,
2013-12-21 03:33:00,35.8,34.2,17.72,NNE,19,0.0,0.0,94,0.00,,,0.00,VWS V13.00,2013-12-21 12:33:00,
2013-12-21 03:38:00,35.8,34.2,17.72,NNE,19,0.0,0.0,94,0.00,,,0.00,VWS V13.00,2013-12-21 12:38:00,
2013-12-21 03:43:00,36.0,34.4,17.72,NNE,19,0.0,0.0,94,0.00,,,0.00,VWS V13.00,2013-12-21 12:43:00,
2013-12-21 03:48:00,36.0,34.4,17.72,NNE,19,0.0,0.0,94,0.00,,,0.00,VWS V13.00,2013-12-21 12:48:00,
2013-12-21 03:53:00,36.0,34.4,17.72,North,357,0.0,0.0,94,0.00,,,0.00,VWS V13.00,2013-12-21 12:53:00,
2013-12-21 03:58:00,36.1,34.6,17.72,NNW,335,0.0,4.0,94,0.00,,,0.00,VWS V13.00,2013-12-21 12:58:00,
2013-12-21 04:03:00,36.0,34.4,17.72,NNW,335,0.0,0.0,94,0.00,,,0.00,VWS V13.00,2013-12-21 13:03:00,
2013-12-21 04:08:00,35.8,34.2,17.72,NNE,15,5.8,5.8,94,0.00,,,0.00,VWS V13.00,2013-12-21 13:08:00,
2013-12-21 04:13:00,35.8,34.2,17.72,North,357,0.0,6.3,94,0.00,,,0.00,VWS V13.00,2013-12-21 13:13:00,
2013-12-21 04:18:00,36.3,35.0,17.72,North,4,2.7,6.3,95,0.00,,,0.00,VWS V13.00,2013-12-21 13:18:00,
2013-12-21 04:23:00,36.5,35.2,17.72,North,357,0.0,2.7,95,0.00,,,0.00,VWS V13.00,2013-12-21 13:23:00,
2013-12-21 04:28:00,36.1,34.6,17.72,North,7,0.0,2.7,94,0.00,,,0.00,VWS V13.00,2013-12-21 13:28:00,
2013-12-21 04:33:00,36.1,34.6,17.72,North,357,4.0,4.0,94,0.00,,,0.00,VWS V13.00,2013-12-21 13:33:00,
2013-12-21 04:38:00,36.1,34.6,17.72,NNW,343,3.6,6.3,94,0.00,,,0.00,VWS V13.00,2013-12-21 13:38:00,
2013-12-21 04:43:00,36.3,35.0,17.72,North,11,5.4,6.3,95,0.00,,,0.00,VWS V13.00,2013-12-21 13:43:00,
2013-12-21 04:48:00,36.5,35.2,17.72,NNE,19,4.9,6.3,95,0.00,,,0.00,VWS V13.00,2013-12-21 13:48:00,
2013-12-21 04:53:00,36.3,35.0,17.72,South,180,3.1,6.3,95,0.00,,,0.00,VWS V13.00,2013-12-21 13:53:00,
2013-12-21 04:58:00,36.3,34.8,17.72,South,180,0.0,6.3,94,0.00,,,0.00,VWS V13.00,2013-12-21 13:58:00,
2013-12-21 05:03:00,36.3,34.8,17.72,South,180,0.0,0.0,94,0.00,,,0.00,VWS V13.00,2013-12-21 14:03:00,
2013-12-21 05:08:00,35.8,34.2,17.72,South,180,0.0,0.0,94,0.00,,,0.00,VWS V13.00,2013-12-21 14:08:00,
2013-12-21 05:13:00,35.6,34.0,17.72,South,180,0.0,0.0,94,0.00,,,0.00,VWS V13.00,2013-12-21 14:13:00,
2013-12-21 05:18:00,35.4,33.9,17.72,South,180,0.0,0.0,94,0.00,,,0.00,VWS V13.00,2013-12-21 14:18:00,
2013-12-21 05:23:00,35.2,33.7,17.72,South,180,0.0,0.0,94,0.00,,,0.00,VWS V13.00,2013-12-21 14:23:00,
2013-12-21 05:28:00,35.2,33.7,17.72,South,180,0.0,0.0,94,0.00,,,0.00,VWS V13.00,2013-12-21 14:28:00,
2013-12-21 05:33:00,35.1,33.8,17.72,South,180,0.0,0.0,95,0.00,,,0.00,VWS V13.00,2013-12-21 14:33:00,
2013-12-21 05:38:00,35.1,33.8,17.72,South,180,0.0,0.0,95,0.00,,,0.00,VWS V13.00,2013-12-21 14:38:00,
2013-12-21 05:43:00,35.1,33.8,17.72,South,180,0.0,0.0,95,0.00,,,0.00,VWS V13.00,2013-12-21 14:43:00,
2013-12-21 05:48:00,35.2,34.0,17.72,South,180,0.0,0.0,95,0.00,,,0.00,VWS V13.00,2013-12-21 14:48:00,
2013-12-21 05:53:00,35.2,34.0,17.72,South,180,0.0,0.0,95,0.00,,,0.00,VWS V13.00,2013-12-21 14:53:00,
2013-12-21 05:58:00,35.2,34.0,17.72,South,180,0.0,0.0,95,0.00,,,0.00,VWS V13.00,2013-12-21 14:58:00,
2013-12-21 06:03:00,35.2,34.0,17.72,South,180,0.0,0.0,95,0.00,,,0.00,VWS V13.00,2013-12-21 15:03:00,
2013-12-21 06:08:00,35.2,34.0,17.72,South,180,0.0,0.0,95,0.00,,,0.00,VWS V13.00,2013-12-21 15:08:00,
2013-12-21 06:13:00,35.2,34.0,17.72,South,180,0.0,0.0,95,0.00,,,0.00,VWS V13.00,2013-12-21 15:13:00,
2013-12-21 06:18:00,35.1,33.8,17.72,South,180,0.0,0.0,95,0.00,,,0.00,VWS V13.00,2013-12-21 15:18:00,
2013-12-21 06:23:00,35.1,33.8,17.72,South,180,0.0,0.0,95,0.00,,,0.00,VWS V13.00,2013-12-21 15:23:00,
2013-12-21 06:28:00,35.1,33.8,17.72,NNE,25,0.0,0.0,95,0.00,,,0.00,VWS V13.00,2013-12-21 15:28:00,
2013-12-21 06:33:00,35.1,33.8,17.72,NNE,20,0.0,0.0,95,0.00,,,0.00,VWS V13.00,2013-12-21 15:33:00,
2013-12-21 06:38:00,35.1,33.8,17.72,North,5,0.0,5.4,95,0.00,,,0.00,VWS V13.00,2013-12-21 15:38:00,
2013-12-21 06:43:00,36.3,35.0,17.72,North,2,0.0,0.0,95,0.00,,,0.00,VWS V13.00,2013-12-21 15:43:00,
2013-12-21 06:48:00,36.0,34.7,17.72,North,2,0.0,0.0,95,0.00,,,0.00,VWS V13.00,2013-12-21 15:48:00,
2013-12-21 06:53:00,35.8,34.2,17.72,North,2,0.0,0.0,94,0.00,,,0.00,VWS V13.00,2013-12-21 15:53:00,
2013-12-21 06:58:00,35.8,34.2,17.72,North,2,0.0,0.0,94,0.00,,,0.00,VWS V13.00,2013-12-21 15:58:00,
2013-12-21 07:03:00,35.4,34.1,17.72,North,2,0.0,0.0,95,0.00,,,0.00,VWS V13.00,2013-12-21 16:03:00,
2013-12-21 07:08:00,35.8,34.5,17.72,North,3,0.0,0.0,95,0.00,,,0.00,VWS V13.00,2013-12-21 16:08:00,
2013-12-21 07:13:00,35.8,34.5,17.72,North,3,0.0,0.0,95,0.00,,,0.00,VWS V13.00,2013-12-21 16:13:00,
2013-12-21 07:18:00,35.8,34.5,17.72,North,3,0.0,0.0,95,0.00,,,0.00,VWS V13.00,2013-12-21 16:18:00,
2013-12-21 07:23:00,35.8,34.5,17.72,North,3,0.0,0.0,95,0.00,,,0.00,VWS V13.00,2013-12-21 16:23:00,
2013-12-21 07:28:00,35.4,34.1,17.72,North,3,0.0,0.0,95,0.00,,,0.00,VWS V13.00,2013-12-21 16:28:00,
2013-12-21 07:33:00,35.4,34.1,17.72,North,357,0.0,0.0,95,0.00,,,0.00,VWS V13.00,2013-12-21 16:33:00,
2013-12-21 07:38:00,35.4,34.1,17.72,North,357,0.0,0.0,95,0.00,,,0.00,VWS V13.00,2013-12-21 16:38:00,
2013-12-21 07:43:00,35.2,34.0,17.72,North,357,0.0,0.0,95,0.00,,,0.00,VWS V13.00,2013-12-21 16:43:00,
2013-12-21 07:48:00,35.2,34.0,17.72,North,357,0.0,0.0,95,0.00,,,0.00,VWS V13.00,2013-12-21 16:48:00,
2013-12-21 07:53:00,35.4,34.1,17.72,North,5,0.0,0.0,95,0.00,,,0.00,VWS V13.00,2013-12-21 16:53:00,
2013-12-21 07:58:00,35.2,34.0,17.72,North,5,0.0,0.0,95,0.00,,,0.00,VWS V13.00,2013-12-21 16:58:00,
2013-12-21 08:03:00,35.4,34.1,17.72,North,5,0.0,0.0,95,0.00,,,0.00,VWS V13.00,2013-12-21 17:03:00,
2013-12-21 08:08:00,35.4,34.1,17.72,North,5,0.0,0.0,95,0.00,,,0.00,VWS V13.00,2013-12-21 17:08:00,
2013-12-21 08:13:00,35.4,34.1,17.72,North,5,0.0,0.0,95,0.00,,,0.00,VWS V13.00,2013-12-21 17:13:00,
2013-12-21 08:18:00,35.4,34.1,17.72,North,5,0.0,0.0,95,0.00,,,0.00,VWS V13.00,2013-12-21 17:18:00,
2013-12-21 08:23:00,35.6,34.3,17.72,North,4,0.0,0.0,95,0.00,,,0.00,VWS V13.00,2013-12-21 17:23:00,
2013-12-21 08:28:00,35.8,34.5,17.72,North,4,0.0,0.0,95,0.00,,,0.00,VWS V13.00,2013-12-21 17:28:00,
2013-12-21 08:33:00,35.6,34.3,17.72,North,4,0.0,0.0,95,0.00,,,0.00,VWS V13.00,2013-12-21 17:33:00,
2013-12-21 08:38:00,35.6,34.3,17.72,North,4,0.0,0.0,95,0.00,,,0.00,VWS V13.00,2013-12-21 17:38:00,
2013-12-21 08:43:00,35.6,34.3,17.72,North,4,0.0,0.0,95,0.00,,,0.00,VWS V13.00,2013-12-21 17:43:00,
2013-12-21 08:48:00,35.8,34.5,17.72,North,4,0.0,0.0,95,0.00,,,0.00,VWS V13.00,2013-12-21 17:48:00,
2013-12-21 08:53:00,35.8,34.5,17.72,North,4,0.0,0.0,95,0.00,,,0.00,VWS V13.00,2013-12-21 17:53:00,
2013-12-21 08:58:00,35.8,34.5,17.72,North,4,0.0,0.0,95,0.00,,,0.00,VWS V13.00,2013-12-21 17:58:00,
2013-12-21 09:03:00,35.8,34.5,17.72,North,4,0.0,0.0,95,0.00,,,0.00,VWS V13.00,2013-12-21 18:03:00,
2013-12-21 09:08:00,35.6,34.3,17.72,North,4,0.0,0.0,95,0.00,,,0.00,VWS V13.00,2013-12-21 18:08:00,
2013-12-21 09:13:00,35.6,34.3,17.72,North,4,0.0,0.0,95,0.00,,,0.00,VWS V13.00,2013-12-21 18:13:00,
2013-12-21 09:18:00,35.6,34.3,17.72,North,4,0.0,0.0,95,0.00,,,0.00,VWS V13.00,2013-12-21 18:18:00,
2013-12-21 09:23:00,35.6,34.3,17.72,North,4,0.0,0.0,95,0.00,,,0.00,VWS V13.00,2013-12-21 18:23:00,
2013-12-21 09:28:00,35.6,34.3,17.72,North,4,0.0,0.0,95,0.00,,,0.00,VWS V13.00,2013-12-21 18:28:00,
2013-12-21 09:33:00,35.6,34.3,17.72,North,4,0.0,0.0,95,0.00,,,0.00,VWS V13.00,2013-12-21 18:33:00,
2013-12-21 09:38:00,35.6,34.3,17.72,North,4,0.0,0.0,95,0.00,,,0.00,VWS V13.00,2013-12-21 18:38:00,
2013-12-21 09:43:00,35.6,34.3,17.72,North,4,0.0,0.0,95,0.00,,,0.00,VWS V13.00,2013-12-21 18:43:00,
2013-12-21 09:48:00,35.6,34.3,17.72,North,4,0.0,0.0,95,0.00,,,0.00,VWS V13.00,2013-12-21 18:48:00,
2013-12-21 09:53:00,35.6,34.3,17.72,North,4,0.0,0.0,95,0.00,,,0.00,VWS V13.00,2013-12-21 18:53:00,
2013-12-21 09:58:00,36.0,34.7,17.72,North,4,0.0,0.0,95,0.00,,,0.00,VWS V13.00,2013-12-21 18:58:00,
2013-12-21 10:03:00,36.0,34.7,17.72,North,4,0.0,0.0,95,0.00,,,0.00,VWS V13.00,2013-12-21 19:03:00,
2013-12-21 10:08:00,36.0,34.7,17.72,North,4,0.0,0.0,95,0.00,,,0.00,VWS V13.00,2013-12-21 19:08:00,
2013-12-21 10:13:00,36.0,34.7,17.72,North,4,0.0,0.0,95,0.00,,,0.00,VWS V13.00,2013-12-21 19:13:00,
2013-12-21 10:18:00,36.0,34.7,17.72,North,4,0.0,0.0,95,0.00,,,0.00,VWS V13.00,2013-12-21 19:18:00,
2013-12-21 10:23:00,36.1,34.8,17.72,North,4,0.0,0.0,95,0.00,,,0.00,VWS V13.00,2013-12-21 19:23:00,
2013-12-21 10:28:00,36.1,34.8,17.72,North,4,0.0,0.0,95,0.00,,,0.00,VWS V13.00,2013-12-21 19:28:00,
2013-12-21 10:33:00,36.0,34.7,17.72,North,4,0.0,0.0,95,0.00,,,0.00,VWS V13.00,2013-12-21 19:33:00,
2013-12-21 10:38:00,36.0,34.7,17.72,North,4,0.0,0.0,95,0.00,,,0.00,VWS V13.00,2013-12-21 19:38:00,
2013-12-21 10:43:00,36.0,34.7,17.72,North,4,0.0,0.0,95,0.00,,,0.00,VWS V13.00,2013-12-21 19:43:00,
2013-12-21 10:48:00,36.0,34.7,17.72,North,4,0.0,0.0,95,0.00,,,0.00,VWS V13.00,2013-12-21 19:48:00,
2013-12-21 10:53:00,36.0,34.7,17.72,North,4,0.0,0.0,95,0.00,,,0.00,VWS V13.00,2013-12-21 19:53:00,
2013-12-21 10:58:00,36.1,34.8,17.72,North,4,0.0,0.0,95,0.00,,,0.00,VWS V13.00,2013-12-21 19:58:00,
2013-12-21 11:03:00,36.1,34.8,17.72,North,4,0.0,0.0,95,0.00,,,0.00,VWS V13.00,2013-12-21 20:03:00,
2013-12-21 11:08:00,36.1,34.8,17.72,North,4,0.0,0.0,95,0.00,,,0.00,VWS V13.00,2013-12-21 20:08:00,
2013-12-21 11:13:00,36.1,34.8,17.72,North,4,0.0,0.0,95,0.00,,,0.00,VWS V13.00,2013-12-21 20:13:00,
2013-12-21 11:18:00,36.1,34.8,17.72,North,4,0.0,0.0,95,0.00,,,0.00,VWS V13.00,2013-12-21 20:18:00,
2013-12-21 11:23:00,36.1,34.8,17.72,North,4,0.0,0.0,95,0.00,,,0.00,VWS V13.00,2013-12-21 20:23:00,
2013-12-21 11:28:00,36.1,34.8,17.72,North,4,0.0,0.0,95,0.00,,,0.00,VWS V13.00,2013-12-21 20:28:00,
2013-12-21 11:33:00,36.1,34.8,17.72,North,4,0.0,0.0,95,0.00,,,0.00,VWS V13.00,2013-12-21 20:33:00,
2013-12-21 11:38:00,36.3,35.0,17.72,North,4,0.0,0.0,95,0.00,,,0.00,VWS V13.00,2013-12-21 20:38:00,
2013-12-21 11:43:00,36.3,35.0,17.72,North,4,0.0,0.0,95,0.00,,,0.00,VWS V13.00,2013-12-21 20:43:00,
2013-12-21 11:48:00,36.3,35.0,17.72,North,4,0.0,0.0,95,0.00,,,0.00,VWS V13.00,2013-12-21 20:48:00,
2013-12-21 11:53:00,36.3,35.0,17.72,North,4,0.0,0.0,95,0.00,,,0.00,VWS V13.00,2013-12-21 20:53:00,
2013-12-21 11:58:00,36.3,35.0,17.72,North,4,0.0,0.0,95,0.00,,,0.00,VWS V13.00,2013-12-21 20:58:00,
2013-12-21 12:03:00,36.3,35.0,17.72,North,4,0.0,0.0,95,0.00,,,0.00,VWS V13.00,2013-12-21 21:03:00,
2013-12-21 12:08:00,36.3,35.0,17.72,North,4,0.0,0.0,95,0.00,,,0.00,VWS V13.00,2013-12-21 21:08:00,
2013-12-21 12:13:00,36.3,35.0,17.72,North,4,0.0,0.0,95,0.00,,,0.00,VWS V13.00,2013-12-21 21:13:00,
2013-12-21 12:18:00,36.3,35.0,17.72,North,4,0.0,0.0,95,0.00,,,0.00,VWS V13.00,2013-12-21 21:18:00,
2013-12-21 12:23:00,36.3,35.0,17.72,North,4,0.0,0.0,95,0.00,,,0.00,VWS V13.00,2013-12-21 21:23:00,
2013-12-21 12:28:00,36.5,35.2,17.72,North,4,0.0,0.0,95,0.00,,,0.00,VWS V13.00,2013-12-21 21:28:00,
2013-12-21 12:33:00,36.7,35.4,17.72,North,4,0.0,0.0,95,0.00,,,0.00,VWS V13.00,2013-12-21 21:33:00,
2013-12-21 12:38:00,36.5,35.2,17.72,North,4,0.0,0.0,95,0.00,,,0.00,VWS V13.00,2013-12-21 21:38:00,
2013-12-21 12:43:00,36.7,35.4,17.72,North,4,0.0,0.0,95,0.00,,,0.00,VWS V13.00,2013-12-21 21:43:00,
2013-12-21 12:48:00,36.7,35.4,17.72,North,4,0.0,0.0,95,0.00,,,0.00,VWS V13.00,2013-12-21 21:48:00,
2013-12-21 12:53:00,36.7,35.4,17.72,North,4,0.0,0.0,95,0.00,,,0.00,VWS V13.00,2013-12-21 21:53:00,
2013-12-21 12:58:00,36.7,35.4,17.72,North,4,0.0,0.0,95,0.00,,,0.00,VWS V13.00,2013-12-21 21:58:00,
2013-12-21 13:03:00,36.7,35.4,17.72,North,4,0.0,0.0,95,0.00,,,0.00,VWS V13.00,2013-12-21 22:03:00,
2013-12-21 13:08:00,36.9,35.6,17.72,North,4,0.0,0.0,95,0.00,,,0.00,VWS V13.00,2013-12-21 22:08:00,
2013-12-21 13:13:00,36.9,35.6,17.72,North,4,0.0,0.0,95,0.00,,,0.00,VWS V13.00,2013-12-21 22:13:00,
2013-12-21 13:18:00,36.9,35.6,17.72,North,4,0.0,0.0,95,0.00,,,0.00,VWS V13.00,2013-12-21 22:18:00,
2013-12-21 13:23:00,36.9,35.6,17.72,North,4,0.0,0.0,95,0.00,,,0.00,VWS V13.00,2013-12-21 22:23:00,
2013-12-21 13:28:00,36.9,35.6,17.72,ESE,123,0.0,0.0,95,0.00,,,0.00,VWS V13.00,2013-12-21 22:28:00,
2013-12-21 13:33:00,37.0,35.7,17.72,ESE,123,0.0,0.0,95,0.00,,,0.00,VWS V13.00,2013-12-21 22:33:00,
2013-12-21 13:38:00,37.0,35.7,17.72,ESE,123,0.0,0.0,95,0.00,,,0.00,VWS V13.00,2013-12-21 22:38:00,
2013-12-21 13:43:00,37.2,36.2,17.72,ESE,123,0.0,0.0,96,0.00,,,0.00,VWS V13.00,2013-12-21 22:43:00,
2013-12-21 13:48:00,37.2,36.2,17.72,ESE,123,0.0,0.0,96,0.00,,,0.00,VWS V13.00,2013-12-21 22:48:00,
2013-12-21 13:53:00,37.2,36.2,17.72,ESE,123,0.0,0.0,96,0.00,,,0.00,VWS V13.00,2013-12-21 22:53:00,
2013-12-21 13:58:00,37.2,36.2,17.72,East,94,0.0,0.0,96,0.00,,,0.00,VWS V13.00,2013-12-21 22:58:00,
2013-12-21 14:03:00,37.2,35.9,17.72,East,94,0.0,0.0,95,0.00,,,0.00,VWS V13.00,2013-12-21 23:03:00,
2013-12-21 14:08:00,37.4,36.1,17.72,East,94,0.0,0.0,95,0.00,,,0.00,VWS V13.00,2013-12-21 23:08:00,
2013-12-21 14:13:00,37.4,36.1,17.72,East,94,0.0,0.0,95,0.00,,,0.00,VWS V13.00,2013-12-21 23:13:00,
2013-12-21 14:18:00,37.4,36.1,17.72,ENE,64,0.0,0.0,95,0.00,,,0.00,VWS V13.00,2013-12-21 23:18:00,
2013-12-21 14:23:00,37.6,36.3,17.72,NE,47,0.0,0.0,95,0.00,,,0.00,VWS V13.00,2013-12-21 23:23:00,
2013-12-21 14:28:00,37.8,36.5,17.72,NNE,26,0.0,0.0,95,0.00,,,0.00,VWS V13.00,2013-12-21 23:28:00,
2013-12-21 14:33:00,37.9,36.6,17.72,NNE,22,0.0,0.0,95,0.00,,,0.00,VWS V13.00,2013-12-21 23:33:00,
2013-12-21 14:38:00,37.9,36.6,17.72,NNE,26,0.0,0.0,95,0.00,,,0.00,VWS V13.00,2013-12-21 23:38:00,
2013-12-21 14:43:00,37.9,36.6,17.72,NE,44,0.0,0.0,95,0.00,,,0.00,VWS V13.00,2013-12-21 23:43:00,
2013-12-21 14:48:00,38.1,36.8,17.72,NNE,20,0.0,0.0,95,0.00,,,0.00,VWS V13.00,2013-12-21 23:48:00,
2013-12-21 14:53:00,38.1,36.8,17.72,North,6,3.6,3.6,95,0.00,,,0.00,VWS V13.00,2013-12-21 23:53:00,
2013-12-21 14:58:00,38.1,36.8,17.72,North,10,4.9,6.3,95,0.00,,,0.00,VWS V13.00,2013-12-21 23:58:00,
2013-12-21 15:03:00,38.3,37.3,17.72,NNE,12,0.0,4.9,96,0.00,,,0.00,VWS V13.00,2013-12-22 00:03:00,
2013-12-21 15:08:00,38.3,37.3,17.72,NNE,17,2.7,4.9,96,0.00,,,0.00,VWS V13.00,2013-12-22 00:08:00,
2013-12-21 15:13:00,38.1,36.8,17.72,North,7,4.0,4.9,95,0.00,,,0.00,VWS V13.00,2013-12-22 00:13:00,
2013-12-21 15:18:00,38.3,37.0,17.72,North,6,4.9,5.8,95,0.00,,,0.00,VWS V13.00,2013-12-22 00:18:00,
2013-12-21 15:23:00,38.3,37.3,17.72,NNE,17,3.6,5.4,96,0.00,,,0.00,VWS V13.00,2013-12-22 00:23:00,
2013-12-21 15:28:00,38.3,37.3,17.72,NNE,15,0.0,5.4,96,0.00,,,0.00,VWS V13.00,2013-12-22 00:28:00,
2013-12-21 15:33:00,38.3,37.0,17.72,NNE,16,0.0,5.4,95,0.00,,,0.00,VWS V13.00,2013-12-22 00:33:00,
2013-12-21 15:38:00,38.1,36.8,17.72,North,6,0.0,5.4,95,0.00,,,0.00,VWS V13.00,2013-12-22 00:38:00,
2013-12-21 15:43:00,38.1,36.8,17.72,ENE,61,0.0,0.0,95,0.00,,,0.00,VWS V13.00,2013-12-22 00:43:00,
2013-12-21 15:48:00,37.9,36.6,17.72,North,8,3.6,5.4,95,0.00,,,0.00,VWS V13.00,2013-12-22 00:48:00,
2013-12-21 15:53:00,37.9,36.6,17.72,North,357,3.6,6.3,95,0.00,,,0.00,VWS V13.00,2013-12-22 00:53:00,
2013-12-21 15:58:00,37.9,36.6,17.72,ENE,72,3.1,6.3,95,0.00,,,0.00,VWS V13.00,2013-12-22 00:58:00,
2013-12-21 16:03:00,37.9,36.6,17.72,NNE,14,6.3,6.3,95,0.00,,,0.00,VWS V13.00,2013-12-22 01:03:00,
2013-12-21 16:08:00,37.8,36.5,17.72,NNE,13,5.4,8.1,95,0.00,,,0.00,VWS V13.00,2013-12-22 01:08:00,
2013-12-21 16:13:00,37.6,36.3,17.72,NNE,17,6.3,8.1,95,0.00,,,0.00,VWS V13.00,2013-12-22 01:13:00,
2013-12-21 16:18:00,37.6,36.3,17.72,North,357,6.7,8.1,95,0.00,,,0.00,VWS V13.00,2013-12-22 01:18:00,
2013-12-21 16:23:00,37.6,36.3,17.72,NNE,23,4.0,6.7,95,0.00,,,0.00,VWS V13.00,2013-12-22 01:23:00,
2013-12-21 16:28:00,37.6,36.3,17.72,North,357,6.3,8.1,95,0.00,,,0.00,VWS V13.00,2013-12-22 01:28:00,
2013-12-21 16:33:00,37.6,36.3,17.72,North,11,4.9,8.1,95,0.00,,,0.00,VWS V13.00,2013-12-22 01:33:00,
2013-12-21 16:38:00,37.6,36.3,17.72,North,11,5.8,8.1,95,0.00,,,0.00,VWS V13.00,2013-12-22 01:38:00,
2013-12-21 16:43:00,37.6,36.3,17.72,NNE,16,3.6,6.3,95,0.00,,,0.00,VWS V13.00,2013-12-22 01:43:00,
2013-12-21 16:48:00,37.6,36.3,17.72,NNE,17,5.8,6.3,95,0.00,,,0.00,VWS V13.00,2013-12-22 01:48:00,
2013-12-21 16:53:00,37.6,36.3,17.72,NNE,17,3.1,6.3,95,0.00,,,0.00,VWS V13.00,2013-12-22 01:53:00,
2013-12-21 16:58:00,37.6,36.3,17.72,East,79,2.7,6.3,95,0.00,,,0.00,VWS V13.00,2013-12-22 01:58:00,
2013-12-21 17:03:00,37.4,36.1,17.72,NNE,28,3.6,3.6,95,0.00,,,0.00,VWS V13.00,2013-12-22 02:03:00,
2013-12-21 17:08:00,37.4,36.1,17.72,North,357,0.0,3.6,95,0.00,,,0.00,VWS V13.00,2013-12-22 02:08:00,
2013-12-21 17:13:00,37.4,36.1,17.72,ENE,77,0.0,6.7,95,0.00,,,0.00,VWS V13.00,2013-12-22 02:13:00,
2013-12-21 17:18:00,37.2,36.2,17.72,NNE,20,0.0,6.7,96,0.00,,,0.00,VWS V13.00,2013-12-22 02:18:00,
2013-12-21 17:23:00,37.2,36.2,17.72,NW,320,3.6,5.8,96,0.00,,,0.00,VWS V13.00,2013-12-22 02:23:00,
2013-12-21 17:28:00,37.2,36.2,17.72,North,353,0.0,8.7,96,0.00,,,0.00,VWS V13.00,2013-12-22 02:28:00,
2013-12-21 17:33:00,37.2,36.2,17.72,NNE,15,4.0,8.7,96,0.00,,,0.00,VWS V13.00,2013-12-22 02:33:00,
2013-12-21 17:38:00,37.2,36.2,17.72,NNE,13,3.6,8.7,96,0.00,,,0.00,VWS V13.00,2013-12-22 02:38:00,
2013-12-21 17:43:00,37.2,36.2,17.72,North,349,3.1,6.3,96,0.00,,,0.00,VWS V13.00,2013-12-22 02:43:00,
2013-12-21 17:48:00,37.2,36.2,17.72,North,10,3.1,6.3,96,0.00,,,0.00,VWS V13.00,2013-12-22 02:48:00,
2013-12-21 17:53:00,37.0,36.0,17.72,North,10,4.9,6.3,96,0.00,,,0.00,VWS V13.00,2013-12-22 02:53:00,
2013-12-21 17:58:00,37.2,36.2,17.72,North,0,2.7,8.3,96,0.00,,,0.00,VWS V13.00,2013-12-22 02:58:00,
2013-12-21 18:03:00,37.2,36.2,17.72,North,2,3.6,6.7,96,0.00,,,0.00,VWS V13.00,2013-12-22 03:03:00,
2013-12-21 18:08:00,37.0,36.0,17.72,NNE,17,6.3,10.5,96,0.00,,,0.00,VWS V13.00,2013-12-22 03:08:00,
2013-12-21 18:13:00,37.0,36.0,17.72,NE,34,4.0,10.5,96,0.00,,,0.00,VWS V13.00,2013-12-22 03:13:00,
2013-12-21 18:18:00,37.0,36.0,17.72,NE,42,2.7,10.5,96,0.00,,,0.00,VWS V13.00,2013-12-22 03:18:00,
2013-12-21 18:23:00,36.9,35.8,17.72,NNE,24,0.0,5.8,96,0.00,,,0.00,VWS V13.00,2013-12-22 03:23:00,
2013-12-21 18:28:00,36.9,35.8,17.72,NNE,15,4.9,5.8,96,0.00,,,0.00,VWS V13.00,2013-12-22 03:28:00,
2013-12-21 18:33:00,36.9,35.8,17.72,ENE,76,0.0,5.8,96,0.00,,,0.00,VWS V13.00,2013-12-22 03:33:00,
2013-12-21 18:38:00,36.9,35.8,17.72,ENE,71,0.0,6.3,96,0.00,,,0.00,VWS V13.00,2013-12-22 03:38:00,
2013-12-21 18:43:00,36.9,35.8,17.72,NNE,33,0.0,0.0,96,0.00,,,0.00,VWS V13.00,2013-12-22 03:43:00,
2013-12-21 18:48:00,36.9,35.8,17.72,North,7,4.9,5.4,96,0.00,,,0.00,VWS V13.00,2013-12-22 03:48:00,
2013-12-21 18:53:00,36.9,35.8,17.72,NE,43,0.0,6.3,96,0.00,,,0.00,VWS V13.00,2013-12-22 03:53:00,
2013-12-21 18:58:00,36.9,35.8,17.72,NE,44,6.3,8.7,96,0.00,,,0.00,VWS V13.00,2013-12-22 03:58:00,
2013-12-21 19:03:00,36.9,35.8,17.72,NNE,16,3.1,3.1,96,0.00,,,0.00,VWS V13.00,2013-12-22 04:03:00,
2013-12-21 19:08:00,36.9,35.6,17.72,NNW,335,3.6,4.0,95,0.00,,,0.00,VWS V13.00,2013-12-22 04:08:00,
2013-12-21 19:13:00,36.9,35.6,17.72,NNE,22,4.0,6.3,95,0.00,,,0.00,VWS V13.00,2013-12-22 04:13:00,
2013-12-21 19:18:00,36.9,35.6,17.72,NNE,17,0.0,6.3,95,0.00,,,0.00,VWS V13.00,2013-12-22 04:18:00,
2013-12-21 19:23:00,36.9,35.6,17.72,NNE,18,0.0,6.3,95,0.00,,,0.00,VWS V13.00,2013-12-22 04:23:00,
2013-12-21 19:28:00,36.9,35.6,17.72,NE,36,3.6,6.3,95,0.00,,,0.00,VWS V13.00,2013-12-22 04:28:00,
2013-12-21 19:33:00,36.9,35.6,17.72,NE,36,0.0,6.3,95,0.00,,,0.00,VWS V13.00,2013-12-22 04:33:00,
2013-12-21 19:38:00,36.9,35.6,17.72,NE,44,0.0,6.3,95,0.00,,,0.00,VWS V13.00,2013-12-22 04:38:00,
2013-12-21 19:43:00,36.7,35.4,17.72,North,357,8.1,8.3,95,0.00,,,0.00,VWS V13.00,2013-12-22 04:43:00,
2013-12-21 19:48:00,36.7,35.4,17.72,East,82,0.0,8.3,95,0.00,,,0.00,VWS V13.00,2013-12-22 04:48:00,
2013-12-21 19:53:00,36.7,35.4,17.72,ENE,75,4.9,8.3,95,0.00,,,0.00,VWS V13.00,2013-12-22 04:53:00,
2013-12-21 19:58:00,36.7,35.4,17.72,East,79,0.0,8.3,95,0.00,,,0.00,VWS V13.00,2013-12-22 04:58:00,
2013-12-21 20:01:00,36.7,35.4,17.72,East,85,0.0,0.0,95,0.00,,,0.00,VWS V13.00,2013-12-22 05:01:00,
2013-12-21 20:06:00,36.9,35.6,17.72,NNE,14,0.0,4.0,95,0.00,,,0.00,VWS V13.00,2013-12-22 05:06:00,
2013-12-21 20:11:00,36.9,35.6,17.72,NE,38,0.0,4.0,95,0.00,,,0.00,VWS V13.00,2013-12-22 05:11:00,
2013-12-21 20:16:00,36.9,35.6,17.72,NNW,340,0.0,4.0,95,0.00,,,0.00,VWS V13.00,2013-12-22 05:16:00,
2013-12-21 20:21:00,36.9,35.6,17.72,NW,318,0.0,0.0,95,0.00,,,0.00,VWS V13.00,2013-12-22 05:21:00,
2013-12-21 20:26:00,36.9,35.6,17.72,NNE,17,0.0,5.8,95,0.00,,,0.00,VWS V13.00,2013-12-22 05:26:00,
2013-12-21 20:31:00,37.0,35.7,17.72,NNE,30,0.0,5.8,95,0.00,,,0.00,VWS V13.00,2013-12-22 05:31:00,
2013-12-21 20:36:00,37.0,35.7,17.72,NE,46,5.8,5.8,95,0.00,,,0.00,VWS V13.00,2013-12-22 05:36:00,
2013-12-21 20:41:00,37.0,35.7,17.72,NNE,14,0.0,0.0,95,0.00,,,0.00,VWS V13.00,2013-12-22 05:41:00,
2013-12-21 20:46:00,37.0,35.7,17.72,NNW,341,0.0,2.7,95,0.00,,,0.00,VWS V13.00,2013-12-22 05:46:00,
2013-12-21 20:51:00,37.0,35.7,17.72,NNE,15,3.6,3.6,95,0.00,,,0.00,VWS V13.00,2013-12-22 05:51:00,
2013-12-21 20:56:00,37.0,35.7,17.72,NNE,23,0.0,4.0,95,0.00,,,0.00,VWS V13.00,2013-12-22 05:56:00,
2013-12-21 21:01:00,37.0,35.7,17.72,NNE,12,4.0,4.0,95,0.00,,,0.00,VWS V13.00,2013-12-22 06:01:00,
2013-12-21 21:06:00,37.0,35.7,17.72,NNE,12,4.0,4.0,95,0.00,,,0.00,VWS V13.00,2013-12-22 06:06:00,
2013-12-21 21:11:00,37.2,35.9,17.72,NW,307,0.0,8.7,95,0.00,,,0.00,VWS V13.00,2013-12-22 06:11:00,
2013-12-21 21:16:00,37.2,35.9,17.72,North,7,0.0,8.7,95,0.00,,,0.00,VWS V13.00,2013-12-22 06:16:00,
2013-12-21 21:21:00,37.2,35.9,17.72,North,7,0.0,0.0,95,0.00,,,0.00,VWS V13.00,2013-12-22 06:21:00,
2013-12-21 21:26:00,37.2,35.9,17.72,NE,51,0.0,0.0,95,0.00,,,0.00,VWS V13.00,2013-12-22 06:26:00,
2013-12-21 21:31:00,37.2,35.9,17.72,NE,51,0.0,0.0,95,0.00,,,0.00,VWS V13.00,2013-12-22 06:31:00,
2013-12-21 21:36:00,37.2,35.9,17.72,ENE,76,0.0,3.1,95,0.00,,,0.00,VWS V13.00,2013-12-22 06:36:00,
2013-12-21 21:41:00,37.0,35.5,17.72,East,79,0.0,0.0,94,0.00,,,0.00,VWS V13.00,2013-12-22 06:41:00,
2013-12-21 21:46:00,37.0,35.5,17.72,East,79,0.0,0.0,94,0.00,,,0.00,VWS V13.00,2013-12-22 06:46:00,
2013-12-21 21:51:00,37.0,35.5,17.72,NE,41,0.0,0.0,94,0.00,,,0.00,VWS V13.00,2013-12-22 06:51:00,
2013-12-21 21:56:00,37.2,35.7,17.72,NNW,341,0.0,0.0,94,0.00,,,0.00,VWS V13.00,2013-12-22 06:56:00,
2013-12-21 21:59:00,37.2,35.7,17.72,North,11,4.0,5.4,94,0.00,,,0.00,VWS V13.00,2013-12-22 06:59:00,
2013-12-21 22:04:00,37.4,35.8,17.72,North,357,0.0,2.7,94,0.00,,,0.00,VWS V13.00,2013-12-22 07:04:00,
2013-12-21 22:09:00,37.4,35.8,17.72,East,82,0.0,2.7,94,0.00,,,0.00,VWS V13.00,2013-12-22 07:09:00,
2013-12-21 22:14:00,37.4,35.8,17.72,North,353,0.0,2.7,94,0.00,,,0.00,VWS V13.00,2013-12-22 07:14:00,
2013-12-21 22:19:00,37.2,35.7,17.72,North,353,0.0,2.7,94,0.00,,,0.00,VWS V13.00,2013-12-22 07:19:00,
2013-12-21 22:24:00,37.2,35.7,17.72,NNE,24,0.0,0.0,94,0.00,,,0.00,VWS V13.00,2013-12-22 07:24:00,
2013-12-21 22:29:00,37.4,35.8,17.72,NE,41,0.0,0.0,94,0.00,,,0.00,VWS V13.00,2013-12-22 07:29:00,
2013-12-21 22:34:00,37.4,35.8,17.72,East,81,0.0,0.0,94,0.00,,,0.00,VWS V13.00,2013-12-22 07:34:00,
2013-12-21 22:39:00,37.2,35.7,17.72,East,97,0.0,0.0,94,0.00,,,0.00,VWS V13.00,2013-12-22 07:39:00,
2013-12-21 22:44:00,37.2,35.7,17.72,North,353,0.0,0.0,94,0.00,,,0.00,VWS V13.00,2013-12-22 07:44:00,
2013-12-21 22:49:00,37.4,35.8,17.72,ESE,111,0.0,0.0,94,0.00,,,0.00,VWS V13.00,2013-12-22 07:49:00,
2013-12-21 22:54:00,37.4,35.8,17.72,East,93,0.0,4.9,94,0.00,,,0.00,VWS V13.00,2013-12-22 07:54:00,
2013-12-21 22:59:00,37.4,35.8,17.72,NE,49,0.0,4.9,94,0.00,,,0.00,VWS V13.00,2013-12-22 07:59:00,
2013-12-21 23:04:00,37.4,35.8,17.72,SSE,159,4.5,4.5,94,0.00,,,0.00,VWS V13.00,2013-12-22 08:04:00,
2013-12-21 23:09:00,37.4,35.8,17.72,NNW,345,6.3,6.3,94,0.00,,,0.00,VWS V13.00,2013-12-22 08:09:00,
2013-12-21 23:14:00,37.6,36.0,17.72,NE,36,0.0,6.3,94,0.00,,,0.00,VWS V13.00,2013-12-22 08:14:00,
2013-12-21 23:19:00,37.6,36.0,17.72,NNE,14,4.0,6.3,94,0.00,,,0.00,VWS V13.00,2013-12-22 08:19:00,
2013-12-21 23:24:00,37.6,36.0,17.72,NNE,27,2.2,2.2,94,0.00,,,0.00,VWS V13.00,2013-12-22 08:24:00,
2013-12-21 23:29:00,37.8,36.2,17.72,WNW,286,5.4,5.4,94,0.00,,,0.00,VWS V13.00,2013-12-22 08:29:00,
2013-12-21 23:34:00,37.8,35.9,17.72,NNE,18,3.6,5.4,93,0.00,,,0.00,VWS V13.00,2013-12-22 08:34:00,
2013-12-21 23:39:00,37.9,36.1,17.72,NNW,332,3.1,5.4,93,0.00,,,0.00,VWS V13.00,2013-12-22 08:39:00,
2013-12-21 23:44:00,37.8,35.9,17.72,NE,46,8.7,8.7,93,0.00,,,0.00,VWS V13.00,2013-12-22 08:44:00,
2013-12-21 23:49:00,37.8,35.7,17.72,NNE,22,5.4,8.7,92,0.00,,,0.00,VWS V13.00,2013-12-22 08:49:00,
2013-12-21 23:54:00,37.8,35.7,17.72,NW,310,2.7,8.7,92,0.00,,,0.00,VWS V13.00,2013-12-22 08:54:00,
2013-12-21 23:59:00,37.8,35.7,17.72,NNE,23,6.3,8.7,92,0.00,,,0.00,VWS V13.00,2013-12-22 08:59:00,